Time;durP1;ratioP1;P1;durP2;ratioP2;P2;SDS_P1;SDS_P2;PMS_P1;PMS_P2;Temp;Humidity;BMP_temperature;BMP_pressure;BME280_temperature;BME280_humidity;BME280_pressure;Samples;Min_cycle;Max_cycle;Signal;HPM_P1;HPM_P2
2021/06/24 00:00:08;;;;;;;7.67;6.20;;;;;;;14.99;93.29;96770.47;3566667;39;20781;-73
2021/06/24 00:02:39;;;;;;;9.33;7.00;;;;;;;14.96;93.53;96774.22;3567440;40;20490;-76
2021/06/24 00:05:09;;;;;;;10.27;7.40;;;;;;;14.98;93.75;96768.81;3566968;39;20461;-74
2021/06/24 00:07:37;;;;;;;7.50;6.20;;;;;;;14.95;93.69;96761.97;3568017;40;20447;-73
2021/06/24 00:10:09;;;;;;;12.00;7.70;;;;;;;15.03;93.75;96756.91;3567779;39;20787;-73
2021/06/24 00:12:38;;;;;;;11.80;6.93;;;;;;;15.06;93.53;96758.44;3565737;40;20454;-72
2021/06/24 00:15:08;;;;;;;11.23;6.87;;;;;;;14.99;93.85;96762.56;3568652;39;20465;-72
2021/06/24 00:17:37;;;;;;;9.53;6.17;;;;;;;15.03;93.94;96761.34;3567285;40;20717;-73
2021/06/24 00:20:07;;;;;;;9.60;7.20;;;;;;;15.11;93.30;96761.53;3567544;39;20463;-73
2021/06/24 00:22:35;;;;;;;8.70;5.43;;;;;;;15.12;92.45;96757.09;3567869;40;20547;-72
2021/06/24 00:25:03;;;;;;;10.93;5.70;;;;;;;15.13;92.08;96764.88;3567886;39;21348;-73
2021/06/24 00:27:31;;;;;;;7.10;4.70;;;;;;;15.15;91.72;96762.09;3570045;40;21082;-73
2021/06/24 00:29:59;;;;;;;6.47;4.63;;;;;;;15.15;91.22;96762.09;3568311;40;20945;-72
2021/06/24 00:32:28;;;;;;;4.70;3.33;;;;;;;15.15;90.54;96760.31;3565000;40;20458;-72
2021/06/24 00:35:00;;;;;;;7.17;3.77;;;;;;;15.17;89.79;96761.03;3568750;39;20496;-72
2021/06/24 00:37:29;;;;;;;6.60;4.10;;;;;;;15.14;90.29;96749.91;3567577;40;20849;-73
2021/06/24 00:39:58;;;;;;;7.20;3.73;;;;;;;15.20;89.89;96768.66;3567705;39;20462;-72
2021/06/24 00:42:29;;;;;;;3.63;2.50;;;;;;;15.20;88.71;96773.09;3569778;40;20814;-73
2021/06/24 00:44:58;;;;;;;5.13;3.27;;;;;;;15.22;89.12;96768.53;3566742;39;20469;-73
2021/06/24 00:47:26;;;;;;;4.60;3.00;;;;;;;15.21;88.31;96766.84;3564766;40;20442;-72
2021/06/24 00:49:54;;;;;;;5.00;2.90;;;;;;;15.18;88.90;96762.69;3566567;39;20765;-72
2021/06/24 00:52:23;;;;;;;5.70;3.70;;;;;;;15.20;89.48;96758.09;3568800;40;20552;-73
2021/06/24 00:54:51;;;;;;;3.57;3.10;;;;;;;15.18;89.16;96759.22;3570148;39;20823;-73
2021/06/24 00:57:20;;;;;;;10.50;3.40;;;;;;;15.14;89.77;96758.63;3567843;40;20702;-72
2021/06/24 00:59:48;;;;;;;12.37;4.07;;;;;;;15.10;89.76;96749.31;3567319;39;20454;-72
2021/06/24 01:02:16;;;;;;;5.23;3.73;;;;;;;15.13;89.51;96758.75;3565821;40;20488;-72
2021/06/24 01:04:45;;;;;;;4.57;2.63;;;;;;;15.18;88.80;96757.41;3567350;39;20481;-72
2021/06/24 01:07:12;;;;;;;5.00;4.07;;;;;;;15.21;89.51;96759.78;3566976;40;20454;-74
2021/06/24 01:09:42;;;;;;;5.57;3.03;;;;;;;15.16;89.81;96750.59;3566963;39;20467;-72
2021/06/24 01:12:11;;;;;;;7.43;3.60;;;;;;;15.14;89.11;96740.16;3567322;40;21021;-72
2021/06/24 01:14:39;;;;;;;3.20;2.40;;;;;;;15.21;88.80;96754.53;3566760;39;20740;-72
2021/06/24 01:17:07;;;;;;;3.10;2.80;;;;;;;15.25;88.10;96762.16;3567483;40;20826;-72
2021/06/24 01:19:36;;;;;;;3.57;2.80;;;;;;;15.29;88.12;96758.28;3567817;39;20485;-72
2021/06/24 01:22:04;;;;;;;4.53;2.73;;;;;;;15.27;88.19;96760.22;3566522;40;20859;-72
2021/06/24 01:24:33;;;;;;;3.37;2.70;;;;;;;15.27;87.94;96752.31;3566147;39;20842;-72
2021/06/24 01:27:01;;;;;;;3.77;2.43;;;;;;;15.41;87.57;96759.91;3566767;40;20520;-72
2021/06/24 01:29:29;;;;;;;4.20;2.97;;;;;;;15.46;87.28;96751.56;3564860;39;20483;-72
2021/06/24 01:31:57;;;;;;;4.47;3.50;;;;;;;15.34;87.41;96753.47;3567624;40;20437;-73
2021/06/24 01:34:25;;;;;;;3.53;2.77;;;;;;;15.31;87.86;96748.44;3565060;39;20466;-73
2021/06/24 01:36:53;;;;;;;3.10;2.60;;;;;;;15.19;87.29;96745.03;3567505;40;20546;-73
2021/06/24 01:39:21;;;;;;;4.13;2.50;;;;;;;15.33;87.04;96746.53;3567170;39;21461;-72
2021/06/24 01:41:58;;;;;;;4.57;2.50;;;;;;;15.41;86.95;96749.34;3568828;40;20889;-73
2021/06/24 01:44:34;;;;;;;9.63;2.60;;;;;;;15.25;88.14;96741.06;3565810;39;20531;-73
2021/06/24 01:47:04;;;;;;;4.40;2.57;;;;;;;15.32;87.70;96736.94;3567029;40;20546;-73
2021/06/24 01:49:32;;;;;;;5.30;2.20;;;;;;;15.19;86.68;96743.25;3565477;39;21049;-73
2021/06/24 01:52:00;;;;;;;4.67;2.13;;;;;;;15.19;86.83;96740.63;3566666;40;20579;-73
2021/06/24 01:54:28;;;;;;;5.93;2.33;;;;;;;15.29;87.43;96730.13;3565591;39;20777;-73
2021/06/24 01:56:57;;;;;;;3.10;2.50;;;;;;;15.16;87.61;96722.41;3568713;40;20856;-73
2021/06/24 01:59:25;;;;;;;7.07;2.77;;;;;;;15.12;87.35;96728.91;3566964;39;20482;-75
2021/06/24 02:01:53;;;;;;;3.30;1.90;;;;;;;15.07;87.30;96725.00;3566350;40;20423;-73
2021/06/24 02:04:27;;;;;;;3.40;2.27;;;;;;;15.17;87.98;96716.19;3567485;39;20480;-73
2021/06/24 02:06:56;;;;;;;5.47;2.90;;;;;;;15.28;88.14;96722.34;3567578;40;20446;-72
2021/06/24 02:09:23;;;;;;;3.47;2.73;;;;;;;15.20;88.75;96708.00;3569624;39;20506;-74
2021/06/24 02:11:55;;;;;;;3.67;2.47;;;;;;;15.22;89.00;96721.06;3569366;40;20823;-74
2021/06/24 02:14:24;;;;;;;6.40;2.53;;;;;;;15.20;89.25;96717.72;3567086;39;20911;-72
2021/06/24 02:16:52;;;;;;;8.43;3.23;;;;;;;15.22;89.62;96711.34;3565216;40;21207;-73
2021/06/24 02:19:20;;;;;;;4.23;2.47;;;;;;;15.27;89.40;96716.22;3566961;39;20458;-73
2021/06/24 02:21:48;;;;;;;4.77;3.13;;;;;;;15.29;89.10;96713.44;3567552;40;20846;-73
2021/06/24 02:24:16;;;;;;;7.47;3.83;;;;;;;15.27;89.35;96704.81;3565684;39;20466;-73
2021/06/24 02:26:46;;;;;;;5.50;3.20;;;;;;;15.27;88.92;96704.81;3569664;40;20677;-72
2021/06/24 02:29:15;;;;;;;4.70;2.80;;;;;;;15.20;89.49;96700.06;3567308;39;20543;-75
2021/06/24 02:31:44;;;;;;;3.60;2.77;;;;;;;15.19;89.86;96706.34;3567325;40;20787;-72
2021/06/24 02:34:13;;;;;;;4.83;3.13;;;;;;;15.18;89.94;96703.81;3566718;39;20664;-73
2021/06/24 02:36:41;;;;;;;3.93;2.80;;;;;;;15.13;89.80;96701.59;3567441;40;20426;-72
2021/06/24 02:39:09;;;;;;;10.50;3.20;;;;;;;15.16;90.14;96705.75;3566328;39;20442;-72
2021/06/24 02:41:37;;;;;;;4.90;3.13;;;;;;;15.06;90.08;96703.06;3566779;40;20537;-72
2021/06/24 02:44:05;;;;;;;6.40;2.60;;;;;;;15.11;90.35;96707.94;3565312;39;20788;-73
2021/06/24 02:46:33;;;;;;;4.63;3.13;;;;;;;15.18;90.16;96702.00;3566608;40;20569;-72
2021/06/24 02:49:03;;;;;;;4.57;3.17;;;;;;;15.20;90.11;96710.63;3567328;39;20445;-72
2021/06/24 02:51:31;;;;;;;11.93;3.30;;;;;;;15.22;90.01;96711.34;3566726;40;20913;-73
2021/06/24 02:53:59;;;;;;;5.10;2.83;;;;;;;15.20;89.92;96709.78;3569071;39;20442;-73
2021/06/24 02:56:27;;;;;;;3.27;2.67;;;;;;;15.19;90.38;96705.47;3567777;40;20641;-73
2021/06/24 02:58:55;;;;;;;12.97;3.30;;;;;;;15.17;90.42;96705.63;3567206;39;20437;-73
2021/06/24 03:01:23;;;;;;;3.90;3.50;;;;;;;15.17;90.29;96699.50;3567548;40;20844;-72
2021/06/24 03:03:51;;;;;;;10.13;3.40;;;;;;;15.10;90.51;96709.75;3566157;39;20852;-72
2021/06/24 03:06:20;;;;;;;5.33;2.87;;;;;;;14.90;90.86;96715.91;3566829;40;20446;-72
2021/06/24 03:08:48;;;;;;;3.40;3.10;;;;;;;14.69;91.63;96708.81;3565932;39;20885;-72
2021/06/24 03:11:16;;;;;;;5.00;3.70;;;;;;;14.76;91.49;96711.75;3565160;40;20770;-73
2021/06/24 03:13:46;;;;;;;5.67;3.40;;;;;;;14.60;91.64;96696.38;3565496;39;20450;-73
2021/06/24 03:16:14;;;;;;;4.13;3.43;;;;;;;14.76;91.96;96701.22;3566376;40;20434;-72
2021/06/24 03:18:42;;;;;;;4.40;3.23;;;;;;;14.88;90.71;96701.97;3566103;39;20807;-72
2021/06/24 03:21:10;;;;;;;3.50;3.20;;;;;;;14.55;92.00;96711.72;3565061;40;20885;-73
2021/06/24 03:23:40;;;;;;;3.43;3.07;;;;;;;14.38;93.50;96703.41;3566420;39;20925;-73
2021/06/24 03:26:07;;;;;;;5.67;3.33;;;;;;;14.56;93.24;96694.94;3566452;40;20728;-73
2021/06/24 03:28:35;;;;;;;4.13;2.93;;;;;;;14.77;92.44;96692.34;3565648;40;20899;-73
2021/06/24 03:31:03;;;;;;;7.77;3.63;;;;;;;14.94;91.42;96699.69;3568061;40;20469;-74
2021/06/24 03:33:31;;;;;;;7.13;3.67;;;;;;;14.87;91.46;96690.59;3566573;40;20502;-73
2021/06/24 03:36:00;;;;;;;5.67;3.50;;;;;;;14.73;91.30;96697.03;3566887;39;20505;-74
2021/06/24 03:38:28;;;;;;;6.07;3.53;;;;;;;14.57;92.16;96696.66;3566722;40;20529;-74
2021/06/24 03:40:57;;;;;;;11.40;3.80;;;;;;;14.65;92.53;96694.22;3566647;39;20844;-73
2021/06/24 03:43:25;;;;;;;4.70;3.43;;;;;;;14.71;92.42;96698.16;3567051;40;20881;-73
2021/06/24 03:45:53;;;;;;;5.47;3.00;;;;;;;14.69;91.82;96685.09;3568306;39;20969;-73
2021/06/24 03:48:21;;;;;;;2.97;2.67;;;;;;;14.74;91.24;96688.19;3569042;40;20546;-73
2021/06/24 03:50:49;;;;;;;4.03;3.40;;;;;;;14.87;91.32;96680.06;3570734;39;20664;-73
2021/06/24 03:53:17;;;;;;;10.23;3.53;;;;;;;15.04;91.69;96694.44;3569605;40;20519;-73
2021/06/24 03:55:45;;;;;;;14.73;3.83;;;;;;;15.11;91.18;96687.69;3570734;39;20473;-74
2021/06/24 03:58:16;;;;;;;6.03;3.60;;;;;;;15.14;91.23;96695.31;3569661;40;20873;-74
2021/06/24 04:00:46;;;;;;;13.87;3.60;;;;;;;15.19;90.39;96693.16;3566833;39;20488;-74
2021/06/24 04:03:15;;;;;;;12.77;3.47;;;;;;;15.15;91.15;96696.16;3567340;40;20770;-73
2021/06/24 04:05:44;;;;;;;5.30;3.20;;;;;;;15.13;90.94;96698.94;3567130;39;20486;-74
2021/06/24 04:08:12;;;;;;;3.67;3.30;;;;;;;15.04;92.11;96699.72;3566566;40;20530;-72
2021/06/24 04:11:02;;;;;;;7.63;4.23;;;;;;;14.64;93.35;96689.91;3575401;40;20469;-75
2021/06/24 04:13:33;;;;;;;4.13;3.50;;;;;;;14.95;92.49;96695.22;3566784;40;20462;-77
2021/06/24 04:16:02;;;;;;;5.53;3.57;;;;;;;15.10;92.26;96693.09;3564870;39;20533;-74
2021/06/24 04:18:30;;;;;;;8.43;3.63;;;;;;;15.34;91.00;96690.97;3567674;40;20540;-77
2021/06/24 04:20:58;;;;;;;5.83;4.53;;;;;;;15.21;91.39;96675.38;3564728;39;21172;-74
2021/06/24 04:23:26;;;;;;;5.30;3.80;;;;;;;15.34;90.85;96684.88;3566979;40;20684;-78
2021/06/24 04:25:54;;;;;;;3.03;2.73;;;;;;;15.39;89.89;96674.75;3567140;39;20678;-75
2021/06/24 04:28:22;;;;;;;7.93;3.90;;;;;;;15.52;89.72;96685.06;3567032;40;20454;-75
2021/06/24 04:30:52;;;;;;;9.77;4.80;;;;;;;15.56;89.47;96678.53;3565448;40;20469;-75
2021/06/24 04:33:20;;;;;;;5.87;4.33;;;;;;;15.64;89.59;96686.63;3566519;40;20554;-74
2021/06/24 04:35:48;;;;;;;8.37;4.43;;;;;;;15.63;89.86;96685.78;3565925;39;20460;-75
2021/06/24 04:38:17;;;;;;;7.57;4.97;;;;;;;15.70;89.30;96679.97;3566589;40;20523;-74
2021/06/24 04:40:44;;;;;;;6.33;4.50;;;;;;;15.55;90.34;96692.72;3566865;39;20478;-73
2021/06/24 04:43:12;;;;;;;8.20;5.40;;;;;;;15.59;89.72;96692.31;3567760;40;20684;-75
2021/06/24 04:45:40;;;;;;;6.40;4.53;;;;;;;15.71;89.56;96695.69;3566888;39;20505;-74
2021/06/24 04:48:10;;;;;;;6.00;4.47;;;;;;;15.74;89.06;96686.69;3568047;40;20483;-74
2021/06/24 04:50:38;;;;;;;4.00;3.70;;;;;;;15.63;89.52;96691.06;3566884;39;20907;-74
2021/06/24 04:53:08;;;;;;;7.00;4.80;;;;;;;15.68;88.83;96680.13;3566611;40;20679;-74
2021/06/24 04:55:39;;;;;;;8.63;3.97;;;;;;;15.70;89.48;96669.41;3574587;39;20476;-76
2021/06/24 04:58:07;;;;;;;10.33;5.17;;;;;;;15.89;89.11;96663.38;3569636;40;20829;-74
2021/06/24 05:00:36;;;;;;;8.70;5.40;;;;;;;15.65;88.67;96666.34;3567655;39;20562;-75
2021/06/24 05:03:09;;;;;;;6.70;5.77;;;;;;;15.96;88.14;96661.88;3567188;40;20511;-74
2021/06/24 05:05:41;;;;;;;7.10;5.13;;;;;;;16.18;87.55;96664.22;3567322;39;20814;-75
2021/06/24 05:08:13;;;;;;;6.97;5.27;;;;;;;16.17;87.36;96652.00;3566745;40;20963;-76
2021/06/24 05:10:42;;;;;;;7.63;4.70;;;;;;;16.16;87.36;96660.06;3566837;39;20490;-76
2021/06/24 05:13:10;;;;;;;7.67;5.13;;;;;;;16.12;87.79;96661.31;3566573;40;20434;-76
2021/06/24 05:15:43;;;;;;;4.40;3.93;;;;;;;16.10;88.44;96650.06;3566012;39;20831;-75
2021/06/24 05:18:13;;;;;;;7.60;4.00;;;;;;;16.28;87.90;96648.38;3567547;40;21187;-75
2021/06/24 05:20:44;;;;;;;6.63;4.43;;;;;;;16.35;87.72;96652.13;3561738;40;20479;-75
2021/06/24 05:23:13;;;;;;;4.83;3.87;;;;;;;16.45;86.60;96649.47;3567854;40;21116;-75
2021/06/24 05:25:41;;;;;;;5.27;3.77;;;;;;;16.32;87.98;96649.75;3568935;39;20727;-75
2021/06/24 05:28:09;;;;;;;5.63;4.20;;;;;;;16.42;87.08;96644.47;3568020;40;21219;-75
2021/06/24 05:30:37;;;;;;;6.53;4.67;;;;;;;16.42;86.55;96652.41;3567848;39;20784;-73
2021/06/24 05:33:06;;;;;;;7.40;6.00;;;;;;;15.89;87.92;96655.44;3568170;40;20848;-75
2021/06/24 05:35:34;;;;;;;7.10;4.77;;;;;;;15.96;87.61;96652.13;3567788;39;20473;-74
2021/06/24 05:38:04;;;;;;;6.03;4.80;;;;;;;16.27;86.30;96652.00;3567951;40;20503;-74
2021/06/24 05:40:32;;;;;;;8.50;4.70;;;;;;;15.98;87.25;96662.56;3566555;40;20490;-74
2021/06/24 05:43:00;;;;;;;3.60;3.30;;;;;;;16.26;85.55;96657.41;3566634;40;20446;-75
2021/06/24 05:45:28;;;;;;;7.33;4.60;;;;;;;16.56;84.21;96666.97;3566436;39;20466;-75
2021/06/24 05:47:58;;;;;;;7.40;5.13;;;;;;;16.46;85.54;96661.72;3565996;40;20436;-75
2021/06/24 05:50:27;;;;;;;4.23;3.83;;;;;;;16.51;84.24;96670.06;3568558;39;20477;-74
2021/06/24 05:52:55;;;;;;;6.10;4.27;;;;;;;16.20;84.13;96672.84;3568433;40;20450;-76
2021/06/24 05:58:08;;;;;;;6.77;4.70;;;;;;;16.95;82.57;96677.53;3567083;40;20902;-77
2021/06/24 06:00:36;;;;;;;5.77;4.07;;;;;;;16.76;83.91;96673.09;3567761;39;20558;-74
2021/06/24 06:03:05;;;;;;;3.63;2.60;;;;;;;17.23;81.45;96682.88;3558093;40;20777;-75
2021/06/24 06:05:33;;;;;;;7.50;4.47;;;;;;;17.34;80.50;96686.16;3567588;39;20856;-74
2021/06/24 06:08:06;;;;;;;6.60;4.63;;;;;;;16.82;81.61;96687.56;3568056;40;20869;-75
2021/06/24 06:10:36;;;;;;;5.97;3.47;;;;;;;16.84;82.12;96689.13;3567889;39;20534;-73
2021/06/24 06:13:05;;;;;;;10.00;2.50;;;;;;;16.87;81.23;96688.00;3567852;40;20460;-73
2021/06/24 06:19:46;;;;;;;8.00;2.33;;;;;;;16.52;82.11;96687.56;3559416;39;20852;-75
2021/06/24 06:22:14;;;;;;;14.43;9.30;;;;;;;16.91;81.68;96698.13;3567117;40;20515;-74
2021/06/24 06:24:44;;;;;;;15.93;9.77;;;;;;;16.93;80.12;96690.88;3566444;39;20586;-73
2021/06/24 06:27:13;;;;;;;7.43;2.83;;;;;;;16.74;81.03;96699.69;3565822;40;20458;-73
2021/06/24 06:29:41;;;;;;;2.23;2.03;;;;;;;16.92;81.40;96705.09;3567179;39;20830;-76
2021/06/24 06:32:09;;;;;;;2.80;1.70;;;;;;;16.76;80.86;96703.00;3567280;40;20777;-74
2021/06/24 06:34:37;;;;;;;2.63;2.30;;;;;;;16.91;81.72;96699.94;3568208;39;20849;-74
2021/06/24 06:37:05;;;;;;;5.80;2.07;;;;;;;17.07;80.39;96697.56;3568673;40;20454;-74
2021/06/24 06:39:33;;;;;;;8.13;3.43;;;;;;;16.80;81.68;96704.41;3568288;39;20458;-75
2021/06/24 06:42:01;;;;;;;2.47;1.60;;;;;;;17.03;80.89;96700.63;3567947;40;20520;-75
2021/06/24 06:44:30;;;;;;;2.43;2.00;;;;;;;17.10;80.77;96688.50;3569096;39;20491;-75
2021/06/24 06:46:58;;;;;;;2.20;1.53;;;;;;;17.16;80.39;96701.97;3567180;40;20442;-73
2021/06/24 06:49:26;;;;;;;3.60;1.97;;;;;;;17.31;80.05;96699.69;3566890;39;20581;-75
2021/06/24 06:51:57;;;;;;;4.90;2.00;;;;;;;17.40;78.98;96697.97;3566585;40;20702;-73
2021/06/24 06:54:25;;;;;;;7.73;2.03;;;;;;;17.25;79.35;96705.56;3566194;39;20547;-75
2021/06/24 06:56:53;;;;;;;2.87;2.03;;;;;;;17.25;79.82;96686.19;3572119;40;20426;-74
2021/06/24 06:59:21;;;;;;;2.70;2.30;;;;;;;17.34;79.02;96699.41;3569111;39;20834;-73
2021/06/24 07:02:10;;;;;;;2.87;2.33;;;;;;;17.12;79.00;96684.72;3568502;40;20450;-73
2021/06/24 07:04:38;;;;;;;4.63;2.23;;;;;;;17.06;79.48;96687.94;3567318;39;20927;-74
2021/06/24 07:07:06;;;;;;;3.60;2.77;;;;;;;17.45;78.72;96694.91;3568166;40;20437;-74
2021/06/24 07:09:34;;;;;;;4.30;2.30;;;;;;;17.86;77.89;96692.78;3566605;39;21184;-75
2021/06/24 07:12:02;;;;;;;4.67;2.43;;;;;;;18.11;75.44;96685.91;3566984;40;20967;-75
2021/06/24 07:14:30;;;;;;;2.33;2.00;;;;;;;18.11;76.14;96684.13;3566522;39;20464;-75
2021/06/24 07:16:58;;;;;;;2.80;1.93;;;;;;;18.76;73.60;96675.88;3568438;40;20834;-74
2021/06/24 07:19:27;;;;;;;6.30;2.97;;;;;;;18.93;73.16;96676.03;3567626;39;20536;-73
2021/06/24 07:21:55;;;;;;;12.03;2.73;;;;;;;19.14;72.91;96673.84;3563603;40;20485;-73
2021/06/24 07:24:23;;;;;;;4.70;2.27;;;;;;;19.43;71.77;96680.63;3568310;39;20492;-76
2021/06/24 07:26:51;;;;;;;2.37;2.20;;;;;;;19.11;71.67;96674.16;3567769;40;20801;-75
2021/06/24 07:29:20;;;;;;;3.17;2.50;;;;;;;19.07;72.38;96680.78;3567432;39;20474;-74
2021/06/24 07:31:48;;;;;;;4.20;2.70;;;;;;;18.91;72.07;96673.50;3567757;40;20718;-75
2021/06/24 07:34:16;;;;;;;9.50;2.60;;;;;;;19.03;73.38;96668.78;3567693;39;20450;-73
2021/06/24 07:36:49;;;;;;;4.93;3.20;;;;;;;19.11;72.42;96674.16;3570844;40;20885;-74
2021/06/24 07:39:17;;;;;;;3.97;1.90;;;;;;;19.28;70.92;96674.25;3564540;40;20792;-75
2021/06/24 07:41:46;;;;;;;4.70;2.40;;;;;;;19.47;70.89;96675.84;3566223;40;20880;-73
2021/06/24 07:44:14;;;;;;;2.50;1.77;;;;;;;19.26;70.93;96686.84;3566383;39;21090;-75
2021/06/24 07:46:42;;;;;;;2.73;1.97;;;;;;;19.42;69.08;96689.56;3568023;40;20769;-74
2021/06/24 07:49:10;;;;;;;3.57;1.57;;;;;;;19.29;69.71;96689.19;3567544;39;20834;-74
2021/06/24 07:51:38;;;;;;;2.30;1.73;;;;;;;19.97;67.97;96685.66;3567656;40;20442;-73
2021/06/24 07:54:07;;;;;;;8.23;1.40;;;;;;;20.69;63.40;96683.28;3566019;39;20842;-73
2021/06/24 07:56:35;;;;;;;2.10;1.50;;;;;;;20.62;64.14;96687.63;3566830;40;20842;-73
2021/06/24 07:59:03;;;;;;;1.97;1.80;;;;;;;20.40;65.03;96690.91;3566717;39;20464;-74
2021/06/24 08:01:31;;;;;;;2.60;1.73;;;;;;;19.97;66.15;96685.66;3565599;40;20909;-75
2021/06/24 08:04:01;;;;;;;1.50;1.30;;;;;;;19.73;66.86;96699.72;3564364;39;20823;-74
2021/06/24 08:06:29;;;;;;;1.70;1.30;;;;;;;19.60;63.57;96693.97;3565595;40;20851;-73
2021/06/24 08:08:57;;;;;;;1.93;1.10;;;;;;;18.77;66.13;96688.16;3566806;39;20437;-74
2021/06/24 08:11:26;;;;;;;1.60;1.30;;;;;;;18.58;67.68;96689.19;3567012;40;20935;-75
2021/06/24 08:13:54;;;;;;;2.60;1.20;;;;;;;18.76;67.59;96691.81;3566146;39;20444;-75
2021/06/24 08:16:22;;;;;;;1.97;1.67;;;;;;;19.70;64.20;96702.66;3565764;40;20575;-74
2021/06/24 08:18:50;;;;;;;2.23;1.30;;;;;;;19.69;64.69;96687.72;3565747;39;20718;-75
2021/06/24 08:21:18;;;;;;;2.33;1.40;;;;;;;20.89;60.41;96697.06;3563863;40;20733;-75
2021/06/24 08:23:46;;;;;;;4.37;1.20;;;;;;;20.97;61.23;96706.06;3567248;39;20881;-73
2021/06/24 08:26:13;;;;;;;1.97;1.37;;;;;;;21.99;57.63;96704.44;3568038;40;20909;-74
2021/06/24 08:28:43;;;;;;;1.67;1.37;;;;;;;21.43;58.13;96703.66;3567200;39;20737;-75
2021/06/24 08:31:11;;;;;;;5.90;1.27;;;;;;;20.57;61.80;96702.38;3568717;40;20430;-74
2021/06/24 08:33:39;;;;;;;5.47;1.50;;;;;;;20.63;62.53;96707.91;3571415;39;20741;-72
2021/06/24 08:36:08;;;;;;;1.40;1.10;;;;;;;21.01;59.90;96712.69;3570700;40;20426;-73
2021/06/24 08:38:36;;;;;;;2.73;1.20;;;;;;;21.27;61.08;96715.19;3566469;40;20430;-73
2021/06/24 08:41:04;;;;;;;1.67;1.23;;;;;;;20.86;60.55;96709.91;3568140;40;20445;-73
2021/06/24 08:43:33;;;;;;;4.40;1.57;;;;;;;21.16;58.88;96712.88;3568410;40;20810;-72
2021/06/24 08:46:05;;;;;;;2.67;1.47;;;;;;;21.79;57.45;96709.38;3566892;39;20880;-75
2021/06/24 08:48:36;;;;;;;1.60;1.40;;;;;;;22.31;57.06;96716.78;3566578;40;20458;-75
2021/06/24 08:51:05;;;;;;;1.70;1.40;;;;;;;22.41;56.34;96707.75;3566617;40;20457;-75
2021/06/24 08:53:33;;;;;;;1.43;1.30;;;;;;;23.06;56.16;96701.88;3567737;40;20811;-76
2021/06/24 08:56:02;;;;;;;2.80;1.50;;;;;;;24.04;53.09;96699.97;3566522;40;20473;-73
2021/06/24 08:58:30;;;;;;;1.30;1.00;;;;;;;23.65;53.70;96706.44;3569010;40;20439;-73
2021/06/24 09:00:58;;;;;;;1.60;1.30;;;;;;;22.88;53.37;96704.03;3566633;39;20466;-72
2021/06/24 09:03:31;;;;;;;2.23;1.37;;;;;;;23.24;55.76;96703.41;3567511;40;20537;-73
2021/06/24 09:06:01;;;;;;;2.43;1.40;;;;;;;23.75;51.94;96694.66;3566276;39;20468;-73
2021/06/24 09:08:40;;;;;;;1.83;1.30;;;;;;;22.81;55.09;96692.41;3598178;22;20516;-73
2021/06/24 09:11:10;;;;;;;2.70;1.40;;;;;;;22.71;56.17;96692.66;3560014;40;20709;-73
2021/06/24 09:13:39;;;;;;;5.17;1.10;;;;;;;24.08;52.76;96695.91;3559360;40;20443;-73
2021/06/24 09:16:19;;;;;;;1.57;1.03;;;;;;;25.30;48.96;96694.19;3566380;40;20769;-73
2021/06/24 09:18:49;;;;;;;2.13;1.30;;;;;;;25.55;47.79;96693.72;3565705;39;21096;-75
2021/06/24 09:21:23;;;;;;;2.30;1.70;;;;;;;25.42;49.78;96686.41;3564278;40;20465;-74
2021/06/24 09:23:52;;;;;;;1.70;1.53;;;;;;;23.40;50.51;96703.22;3560460;40;20818;-73
2021/06/24 09:26:21;;;;;;;2.93;1.20;;;;;;;21.63;56.17;96709.44;3557060;40;20923;-74
2021/06/24 09:28:52;;;;;;;2.60;1.40;;;;;;;20.40;58.70;96707.66;3555898;40;20455;-71
2021/06/24 09:31:23;;;;;;;6.50;4.40;;;;;;;20.90;59.34;96713.91;3563059;40;20816;-73
2021/06/24 09:33:53;;;;;;;2.10;1.20;;;;;;;20.42;60.87;96710.19;3555835;39;20443;-73
2021/06/24 09:36:33;;;;;;;1.60;1.20;;;;;;;20.39;58.75;96719.31;3558945;40;20945;-72
2021/06/24 09:39:02;;;;;;;2.13;1.40;;;;;;;20.20;60.93;96717.78;3558968;39;20445;-71
2021/06/24 09:41:30;;;;;;;3.07;1.20;;;;;;;19.92;60.62;96710.06;3561993;40;20438;-72
2021/06/24 09:43:58;;;;;;;2.53;1.20;;;;;;;20.10;59.70;96714.44;3561672;40;20478;-73
2021/06/24 09:46:30;;;;;;;1.23;0.90;;;;;;;20.34;58.95;96711.81;3570485;40;20548;-73
2021/06/24 09:49:00;;;;;;;1.70;1.20;;;;;;;20.65;59.12;96713.88;3558504;39;20666;-72
2021/06/24 09:51:31;;;;;;;2.57;1.30;;;;;;;20.72;58.71;96708.75;3557296;40;20926;-74
2021/06/24 09:54:00;;;;;;;1.23;0.90;;;;;;;20.65;58.10;96710.41;3557135;39;20823;-74
2021/06/24 09:56:33;;;;;;;1.70;1.30;;;;;;;20.59;59.45;96711.03;3558590;40;20849;-71
2021/06/24 09:59:04;;;;;;;5.90;3.63;;;;;;;20.77;57.66;96706.41;3560231;40;20706;-74
2021/06/24 10:01:36;;;;;;;3.30;1.43;;;;;;;20.77;57.70;96697.59;3561956;40;21142;-72
2021/06/24 10:04:18;;;;;;;2.10;1.20;;;;;;;21.12;58.57;96699.88;3561407;40;20532;-73
2021/06/24 10:06:46;;;;;;;1.93;1.30;;;;;;;20.78;59.96;96701.91;3560137;40;20521;-73
2021/06/24 10:09:14;;;;;;;2.43;1.37;;;;;;;21.35;57.47;96696.50;3558457;39;20709;-73
2021/06/24 10:11:42;;;;;;;1.67;1.57;;;;;;;21.42;58.25;96697.47;3560934;40;20573;-75
2021/06/24 10:14:11;;;;;;;1.70;1.40;;;;;;;21.90;57.93;96701.00;3570038;39;20949;-73
2021/06/24 10:16:42;;;;;;;4.63;1.53;;;;;;;21.76;57.51;96692.88;3561482;40;20451;-72
2021/06/24 10:19:13;;;;;;;1.47;1.37;;;;;;;22.67;55.09;96686.84;3571459;40;20756;-75
2021/06/24 10:21:41;;;;;;;2.67;1.70;;;;;;;22.89;53.61;96687.00;3563901;40;20764;-72
2021/06/24 10:24:12;;;;;;;1.97;1.30;;;;;;;22.11;56.21;96676.38;3569555;40;20906;-74
2021/06/24 10:26:45;;;;;;;1.47;1.37;;;;;;;21.95;55.79;96689.78;3561731;40;20900;-75
2021/06/24 10:29:15;;;;;;;1.80;1.40;;;;;;;22.23;54.31;96694.66;3561161;39;20884;-75
2021/06/24 10:31:45;;;;;;;2.80;1.47;;;;;;;22.33;55.34;96679.28;3564792;40;20534;-72
2021/06/24 10:34:15;;;;;;;5.93;1.23;;;;;;;23.01;55.33;96680.22;3563817;39;20744;-75
2021/06/24 10:37:21;;;;;;;2.27;1.40;;;;;;;22.73;54.67;96679.16;3562942;40;20431;-73
2021/06/24 10:39:51;;;;;;;1.30;0.90;;;;;;;20.91;55.31;96688.94;3557749;40;20896;-74
2021/06/24 10:42:20;;;;;;;1.20;1.03;;;;;;;21.21;55.96;96684.72;3558731;40;20459;-72
2021/06/24 10:44:55;;;;;;;2.70;1.10;;;;;;;21.31;54.64;96687.19;3561188;40;20470;-73
2021/06/24 10:47:40;;;;;;;4.37;1.37;;;;;;;20.93;57.37;96677.13;3559914;40;20847;-73
2021/06/24 10:50:43;;;;;;;3.07;1.10;;;;;;;22.09;55.94;96680.22;3558942;39;20935;-72
2021/06/24 10:53:52;;;;;;;1.23;1.00;;;;;;;22.66;53.49;96673.72;3559127;40;20450;-73
2021/06/24 10:56:45;;;;;;;1.37;1.17;;;;;;;21.89;56.33;96677.16;3552712;40;20956;-74
2021/06/24 10:59:24;;;;;;;11.83;1.63;;;;;;;22.54;55.03;96662.59;3551659;40;21142;-73
2021/06/24 11:01:52;;;;;;;3.73;1.30;;;;;;;22.37;56.70;96669.09;3549753;40;20447;-73
2021/06/24 11:04:32;;;;;;;4.00;1.00;;;;;;;22.10;53.90;96679.22;3549770;40;20767;-72
2021/06/24 11:07:16;;;;;;;6.07;1.30;;;;;;;22.08;54.90;96676.72;3552099;40;20523;-73
2021/06/24 11:10:30;;;;;;;1.80;0.97;;;;;;;22.20;52.72;96663.00;3547409;40;20459;-73
2021/06/24 11:13:01;;;;;;;1.30;1.10;;;;;;;22.38;51.47;96676.06;3547982;40;20565;-73
2021/06/24 11:15:52;;;;;;;1.20;0.90;;;;;;;22.10;53.36;96652.56;3550870;40;20450;-72
2021/06/24 11:18:57;;;;;;;1.10;0.87;;;;;;;21.59;54.98;96647.66;3549084;40;20739;-73
2021/06/24 11:21:54;;;;;;;2.03;0.90;;;;;;;21.89;53.94;96639.84;3555168;40;20933;-73
2021/06/24 11:24:28;;;;;;;2.10;1.20;;;;;;;22.41;54.72;96628.53;3558267;40;20733;-73
2021/06/24 11:26:58;;;;;;;1.77;0.80;;;;;;;23.48;50.57;96628.31;3556166;40;20439;-75
2021/06/24 11:29:34;;;;;;;0.90;0.70;;;;;;;23.51;49.84;96639.66;3548065;40;20576;-72
2021/06/24 11:32:08;;;;;;;1.57;1.00;;;;;;;22.02;50.85;96645.44;3549690;40;20469;-74
2021/06/24 11:37:28;;;;;;;3.10;0.70;;;;;;;21.47;54.21;96644.56;3548643;40;20476;-73
2021/06/24 11:40:00;;;;;;;2.77;1.00;;;;;;;21.29;56.59;96655.41;3548178;40;20546;-72
2021/06/24 11:42:32;;;;;;;0.80;0.70;;;;;;;21.12;54.63;96649.28;3549091;40;20716;-73
2021/06/24 11:45:02;;;;;;;1.73;0.87;;;;;;;20.99;56.30;96650.81;3550895;40;20807;-74
2021/06/24 11:47:33;;;;;;;1.53;0.90;;;;;;;20.74;56.75;96651.69;3568510;40;20467;-76
2021/06/24 12:01:46;;;;;;;1.40;0.90;;;;;;;20.14;59.99;96657.28;3555239;40;20497;-73
2021/06/24 12:04:18;;;;;;;2.73;0.90;;;;;;;20.34;60.04;96666.59;3565242;40;20504;-73
2021/06/24 12:06:50;;;;;;;5.73;0.93;;;;;;;20.59;58.01;96679.13;3578896;40;20454;-73